< Cyclone 197416 1974 Season Cyclone 197418 >
Cyclone 197417 (JESSIE)
General InformationTrack Information on Google MapsDetailed Wind Information || ResourceGoogle EarthGE AnimationAtom FeedGeoJSON
Detalied Best Track (Time Zone = UTC)
Year Month Day Hour Lat. Long. Pressure (hPa) Wind (kt) Class Image Chart
1974 3 16 01 -12.3 121.2 998 30 2 -- --
1974 3 16 04 -12.4 121.3 998 30 2 -- --
1974 3 16 07 -12.4 121.4 997 30 2 -- --
1974 3 16 10 -12.5 121.5 996 30 2 -- --
1974 3 16 13 -12.5 121.6 995 30 2 -- --
1974 3 16 16 -12.5 121.8 995 30 2 -- --
1974 3 16 19 -12.4 122.0 994 35 3 -- --
1974 3 16 22 -12.3 122.2 994 35 3 -- --
1974 3 17 01 -12.3 122.3 994 35 3 -- --
1974 3 17 04 -12.3 122.4 993 40 3 -- --
1974 3 17 07 -12.5 122.3 990 45 3 -- --
1974 3 17 10 -12.6 122.2 989 45 3 -- --
1974 3 17 13 -12.7 122.0 988 50 4 -- --
1974 3 17 16 -12.8 121.7 988 50 4 -- --
1974 3 17 19 -12.9 121.5 988 50 4 -- --
1974 3 17 22 -12.9 121.4 988 50 4 -- --
1974 3 18 01 -13.0 121.1 988 50 4 -- --
1974 3 18 04 -13.1 120.7 988 50 4 -- --
1974 3 18 07 -13.2 120.4 987 50 4 -- --
1974 3 18 10 -13.3 120.0 986 50 4 -- --
1974 3 18 13 -13.4 119.6 985 50 4 -- --
1974 3 18 16 -13.4 119.4 983 55 4 -- --
1974 3 18 19 -13.5 119.0 982 55 4 -- --
1974 3 18 22 -13.6 118.6 981 55 4 -- --
1974 3 19 01 -13.6 118.3 981 55 4 -- --
1974 3 19 04 -13.9 117.7 979 60 4 -- --
1974 3 19 07 -14.1 117.1 975 65 5 -- --
1974 3 19 10 -14.4 116.4 972 70 5 -- --
1974 3 19 13 -14.5 115.6 970 75 5 -- --
1974 3 19 16 -14.8 114.9 968 75 5 -- --
1974 3 19 19 -14.9 114.0 966 80 5 -- --
1974 3 19 22 -15.1 113.3 965 80 5 -- --
1974 3 20 01 -15.1 112.3 964 80 5 -- --
1974 3 20 04 -15.1 111.6 965 80 5 -- --
1974 3 20 07 -15.2 111.0 967 80 5 -- --
1974 3 20 10 -15.1 110.3 966 80 5 -- --
1974 3 20 13 -15.0 109.6 970 75 5 -- --
1974 3 20 16 -15.0 109.1 972 70 5 -- --
1974 3 20 19 -14.9 108.4 971 70 5 -- --
1974 3 20 22 -15.0 107.8 972 70 5 -- --
1974 3 21 01 -15.0 107.1 973 70 5 -- --
1974 3 21 04 -15.0 106.7 973 70 5 -- --
1974 3 21 07 -15.1 106.4 972 70 5 -- --
1974 3 21 10 -15.2 106.1 972 70 5 -- --
1974 3 21 13 -15.3 105.6 973 70 5 -- --
1974 3 21 16 -15.4 105.2 973 70 5 -- --
1974 3 21 19 -15.5 104.8 972 70 5 -- --
1974 3 21 22 -15.5 104.5 972 70 5 -- --
1974 3 22 01 -15.8 104.1 973 70 5 -- --
1974 3 22 04 -16.1 103.5 974 70 5 -- --
1974 3 22 07 -16.3 102.9 975 65 5 -- --
1974 3 22 10 -16.6 102.3 978 65 5 -- --
1974 3 22 13 -17.0 101.6 983 60 4 -- --
1974 3 22 16 -17.4 101.0 986 55 4 -- --
1974 3 22 19 -17.4 100.5 985 55 4 -- --
1974 3 22 22 -18.1 99.8 986 55 4 -- --
1974 3 23 01 -18.4 99.0 988 50 4 -- --
1974 3 23 04 -18.8 98.6 989 50 4 -- --
1974 3 23 07 -19.1 98.0 989 50 4 -- --
1974 3 23 10 -19.5 97.5 991 50 4 -- --
1974 3 23 13 -19.9 97.0 993 40 3 -- --
1974 3 23 16 -20.3 96.6 994 40 3 -- --
1974 3 23 19 -20.8 96.2 993 40 3 -- --
1974 3 23 22 -21.3 95.7 993 40 3 -- --
1974 3 24 01 -21.8 95.4 994 40 3 -- --
1974 3 24 04 -22.4 95.2 995 40 3 -- --
1974 3 24 07 -22.9 94.9 994 40 3 -- --
1974 3 24 10 -23.5 94.7 996 35 3 -- --
1974 3 24 13 -24.3 94.6 999 30 2 -- --
1974 3 24 16 -25.0 94.8 1002 30 2 -- --
1974 3 24 19 -25.7 94.5 1001 25 2 -- --
1974 3 24 22 -26.5 94.5 1002 25 2 -- --
1974 3 25 01 -27.4 94.6 1003 25 2 -- --
< Cyclone 197416 1974 Season Cyclone 197418 >

Help